createdAt,value
2022-11-28T00:01:47.095Z,90.30
2022-11-28T00:04:16.367Z,90.05
2022-11-28T00:06:50.157Z,89.95
2022-11-28T00:09:21.585Z,89.85
2022-11-28T00:11:50.919Z,90.22
2022-11-28T00:14:20.638Z,90.10
2022-11-28T00:16:49.934Z,90.56
2022-11-28T00:19:18.630Z,90.64
2022-11-28T00:21:47.557Z,90.01
2022-11-28T00:24:16.823Z,89.87
2022-11-28T00:26:45.735Z,90.60
2022-11-28T00:29:14.602Z,90.53
2022-11-28T00:31:44.212Z,89.84
2022-11-28T00:34:15.542Z,89.54
2022-11-28T00:36:47.011Z,89.49
2022-11-28T00:39:17.210Z,89.56
2022-11-28T00:41:46.324Z,90.39
2022-11-28T00:44:15.526Z,89.90
2022-11-28T00:46:44.317Z,89.55
2022-11-28T00:49:13.624Z,90.11
2022-11-28T00:51:42.285Z,90.86
2022-11-28T00:54:11.047Z,88.82
2022-11-28T00:56:40.611Z,87.77
2022-11-28T00:59:09.592Z,87.58
2022-11-28T01:01:42.664Z,87.41
2022-11-28T01:04:14.856Z,87.56
2022-11-28T01:06:52.957Z,87.68
2022-11-28T01:09:24.265Z,87.33
2022-11-28T01:11:55.126Z,88.19
2022-11-28T01:14:25.968Z,87.80
2022-11-28T01:16:54.789Z,87.49
2022-11-28T01:19:23.669Z,88.05
2022-11-28T01:21:52.652Z,88.14
2022-11-28T01:24:21.237Z,87.49
2022-11-28T01:26:49.862Z,87.87
2022-11-28T01:29:18.467Z,87.76
2022-11-28T01:31:47.269Z,87.58
2022-11-28T01:34:16.921Z,88.08
2022-11-28T01:36:45.494Z,88.33
2022-11-28T01:39:15.917Z,88.49
2022-11-28T01:41:44.550Z,88.66
2022-11-28T01:44:15.881Z,89.04
2022-11-28T01:46:44.776Z,89.01
2022-11-28T01:49:19.176Z,88.76
2022-11-28T01:52:07.997Z,88.85
2022-11-28T01:54:37.979Z,88.73
2022-11-28T01:57:11.349Z,89.10
2022-11-28T01:59:49.420Z,89.06
2022-11-28T02:02:57.655Z,89.07
2022-11-28T02:05:26.317Z,89.30
2022-11-28T02:07:55.171Z,89.48
2022-11-28T02:10:51.948Z,89.49
2022-11-28T02:13:47.369Z,89.45
2022-11-28T02:16:50.727Z,90.68
2022-11-28T02:19:59.837Z,90.58
2022-11-28T02:22:46.516Z,90.60
2022-11-28T02:25:32.201Z,89.81
2022-11-28T02:28:41.164Z,88.97
2022-11-28T02:31:33.783Z,88.71
2022-11-28T02:34:25.584Z,88.45
2022-11-28T02:37:09.291Z,88.53
2022-11-28T02:40:10.251Z,88.29
2022-11-28T02:43:03.921Z,88.50
2022-11-28T02:45:51.031Z,88.24
2022-11-28T02:49:00.046Z,88.68
2022-11-28T02:51:41.016Z,89.91
2022-11-28T02:54:14.938Z,89.43
2022-11-28T02:56:51.718Z,89.11
2022-11-28T02:59:38.570Z,89.13
2022-11-28T03:02:27.851Z,89.17
2022-11-28T03:05:08.805Z,89.35
2022-11-28T03:07:55.947Z,89.22
2022-11-28T03:10:45.446Z,89.24
2022-11-28T03:13:47.440Z,89.26
2022-11-28T03:16:39.213Z,90.22
2022-11-28T03:19:22.725Z,91.06
2022-11-28T03:21:54.098Z,91.62
2022-11-28T03:24:34.288Z,93.00
2022-11-28T03:27:24.043Z,91.54
2022-11-28T03:30:08.988Z,90.62
2022-11-28T03:32:40.633Z,90.47
2022-11-28T03:35:19.280Z,90.69
2022-11-28T03:38:22.582Z,91.33
2022-11-28T03:40:56.658Z,91.39
2022-11-28T03:43:33.203Z,91.58
2022-11-28T03:46:08.839Z,91.79
2022-11-28T03:48:46.666Z,92.11
2022-11-28T03:51:26.014Z,91.96
2022-11-28T03:54:11.439Z,91.85
2022-11-28T03:56:52.364Z,91.59
2022-11-28T03:59:45.067Z,92.08
2022-11-28T04:02:30.553Z,91.57
2022-11-28T04:05:28.592Z,93.04
2022-11-28T04:08:19.518Z,92.60
2022-11-28T04:11:09.461Z,92.35
2022-11-28T04:14:08.650Z,91.89
2022-11-28T04:17:29.564Z,91.37
2022-11-28T04:20:18.794Z,91.25
2022-11-28T04:23:01.343Z,90.95
2022-11-28T04:25:34.804Z,90.87
2022-11-28T04:28:14.957Z,90.94
2022-11-28T04:30:45.961Z,91.37
2022-11-28T04:33:17.684Z,91.62
2022-11-28T04:35:51.980Z,91.22
2022-11-28T04:38:25.115Z,90.89
2022-11-28T04:41:17.455Z,90.69
2022-11-28T04:44:03.633Z,90.60
2022-11-28T04:46:40.717Z,90.58
2022-11-28T04:49:10.645Z,90.48
2022-11-28T04:52:20.509Z,90.55
2022-11-28T04:55:29.037Z,90.56
2022-11-28T04:58:22.981Z,90.32
2022-11-28T05:00:54.577Z,90.08
2022-11-28T05:03:28.557Z,89.29
2022-11-28T05:05:57.578Z,89.26
2022-11-28T05:08:26.243Z,89.14
2022-11-28T05:10:55.152Z,88.17
2022-11-28T05:13:23.815Z,88.00
2022-11-28T05:15:52.726Z,87.84
2022-11-28T05:18:21.307Z,87.75
2022-11-28T05:20:50.044Z,87.33
2022-11-28T05:23:20.391Z,87.58
2022-11-28T05:25:49.037Z,86.81
2022-11-28T05:28:17.726Z,86.64
2022-11-28T05:30:58.526Z,86.44
2022-11-28T05:33:28.739Z,86.42
2022-11-28T05:36:05.467Z,86.38
2022-11-28T05:38:36.438Z,87.06
2022-11-28T05:41:05.357Z,87.46
2022-11-28T05:43:34.299Z,87.62
2022-11-28T05:46:06.810Z,87.93
2022-11-28T05:48:36.034Z,88.49
2022-11-28T05:51:06.004Z,88.19
2022-11-28T05:53:35.390Z,88.55
2022-11-28T05:56:13.912Z,88.38
2022-11-28T05:58:42.931Z,88.54
2022-11-28T06:01:14.149Z,88.54
2022-11-28T06:03:43.368Z,88.03
2022-11-28T06:06:19.691Z,88.11
2022-11-28T06:08:51.651Z,88.18
2022-11-28T06:11:23.430Z,87.89
2022-11-28T06:13:52.745Z,87.67
2022-11-28T06:16:25.533Z,87.59
2022-11-28T06:19:00.150Z,87.33
2022-11-28T06:21:30.770Z,86.97
2022-11-28T06:24:00.419Z,86.49
2022-11-28T06:26:29.957Z,87.12
2022-11-28T06:28:58.681Z,87.19
2022-11-28T06:31:30.273Z,87.13
2022-11-28T06:33:59.565Z,86.81
2022-11-28T06:36:28.208Z,86.95
2022-11-28T06:38:56.930Z,86.59
2022-11-28T06:41:25.642Z,86.59
2022-11-28T06:43:55.372Z,86.31
2022-11-28T06:46:24.325Z,86.46
2022-11-28T06:48:53.538Z,85.84
2022-11-28T06:51:22.409Z,86.13
2022-11-28T06:53:51.322Z,86.02
2022-11-28T06:56:21.131Z,86.24
2022-11-28T06:58:58.674Z,86.14
2022-11-28T07:01:31.172Z,86.25
2022-11-28T07:04:01.533Z,85.55
2022-11-28T07:06:30.493Z,85.81
2022-11-28T07:08:59.686Z,86.04
2022-11-28T07:11:31.774Z,85.49
2022-11-28T07:14:02.872Z,85.27
2022-11-28T07:16:33.715Z,83.36
2022-11-28T07:19:03.247Z,82.90
2022-11-28T07:21:32.530Z,83.58
2022-11-28T07:24:01.283Z,83.74
2022-11-28T07:26:30.936Z,83.11
2022-11-28T07:29:00.298Z,82.92
2022-11-28T07:31:32.408Z,81.69
2022-11-28T07:34:03.744Z,81.70
2022-11-28T07:36:32.511Z,82.29
2022-11-28T07:39:03.720Z,81.26
2022-11-28T07:41:32.494Z,80.23
2022-11-28T07:44:03.597Z,79.90
2022-11-28T07:46:34.353Z,79.89
2022-11-28T07:49:04.367Z,80.54
2022-11-28T07:51:34.324Z,80.06
2022-11-28T07:54:05.065Z,80.49
2022-11-28T07:57:10.779Z,80.51
2022-11-28T07:59:25.862Z,80.76
2022-11-28T08:01:54.560Z,81.41
2022-11-28T08:04:23.403Z,81.52
2022-11-28T08:06:52.743Z,81.58
2022-11-28T08:09:21.615Z,81.67
2022-11-28T08:11:52.708Z,82.32
2022-11-28T08:14:21.371Z,82.40
2022-11-28T08:16:50.186Z,82.26
2022-11-28T08:19:23.058Z,82.49
2022-11-28T08:21:53.522Z,82.18
2022-11-28T08:24:22.139Z,82.59
2022-11-28T08:26:50.895Z,82.33
2022-11-28T08:29:19.629Z,82.44
2022-11-28T08:31:48.422Z,82.47
2022-11-28T08:34:17.037Z,83.04
2022-11-28T08:36:47.498Z,83.38
2022-11-28T08:39:24.826Z,83.23
2022-11-28T08:41:59.128Z,83.09
2022-11-28T08:44:30.386Z,82.96
2022-11-28T08:46:59.385Z,83.34
2022-11-28T08:49:28.026Z,82.93
2022-11-28T08:51:56.621Z,83.15
2022-11-28T08:54:25.297Z,82.99
2022-11-28T08:56:53.895Z,82.67
2022-11-28T08:59:22.681Z,83.19
2022-11-28T09:01:55.176Z,83.76
2022-11-28T09:04:24.303Z,83.25
2022-11-28T09:06:53.094Z,82.82
2022-11-28T09:09:22.093Z,82.72
2022-11-28T09:11:51.023Z,83.19
2022-11-28T09:14:19.758Z,82.40
2022-11-28T09:16:48.664Z,82.41
2022-11-28T09:19:17.408Z,82.41
2022-11-28T09:21:46.057Z,82.66
2022-11-28T09:24:14.667Z,82.69
2022-11-28T09:26:43.398Z,82.72
2022-11-28T09:29:12.022Z,83.36
2022-11-28T09:31:45.823Z,84.13
2022-11-28T09:34:16.328Z,83.57
2022-11-28T09:36:45.056Z,83.68
2022-11-28T09:39:13.660Z,83.89
2022-11-28T09:42:22.419Z,83.61
2022-11-28T09:44:58.365Z,84.07
2022-11-28T09:47:35.057Z,83.78
2022-11-28T09:50:11.018Z,83.25
2022-11-28T09:53:01.158Z,83.61
2022-11-28T09:55:44.471Z,83.45
2022-11-28T09:58:39.997Z,82.99
2022-11-28T10:01:19.590Z,83.23
2022-11-28T10:04:52.338Z,83.05
2022-11-28T10:07:43.153Z,83.07
2022-11-28T10:10:38.149Z,84.63
2022-11-28T10:14:05.976Z,83.98
2022-11-28T10:16:54.905Z,82.04
2022-11-28T10:20:04.752Z,84.11
2022-11-28T10:22:52.191Z,90.86
2022-11-28T10:25:37.485Z,85.80
2022-11-28T10:28:13.687Z,86.95
2022-11-28T10:30:48.649Z,88.18
2022-11-28T10:33:31.969Z,88.21
2022-11-28T10:36:02.488Z,81.41
2022-11-28T10:38:34.996Z,82.02
2022-11-28T10:41:29.009Z,82.10
2022-11-28T10:44:21.504Z,81.94
2022-11-28T10:47:06.239Z,81.26
2022-11-28T10:49:49.038Z,81.33
2022-11-28T10:52:29.579Z,80.83
2022-11-28T10:55:51.866Z,80.76
2022-11-28T10:59:07.320Z,80.19
2022-11-28T11:01:43.775Z,80.49
2022-11-28T11:04:29.333Z,80.39
2022-11-28T11:07:29.257Z,80.35
2022-11-28T11:10:18.229Z,80.58
2022-11-28T11:12:50.562Z,80.91
2022-11-28T11:15:32.918Z,80.59
2022-11-28T11:18:19.942Z,80.46
2022-11-28T11:20:48.630Z,80.62
2022-11-28T11:23:21.409Z,80.40
2022-11-28T11:25:58.517Z,80.39
2022-11-28T11:28:41.239Z,79.71
2022-11-28T11:31:33.628Z,79.12
2022-11-28T11:34:13.200Z,79.42
2022-11-28T11:36:41.812Z,80.44
2022-11-28T11:39:11.058Z,80.09
2022-11-28T11:41:50.167Z,80.27
2022-11-28T11:44:34.986Z,81.05
2022-11-28T11:47:09.361Z,80.76
2022-11-28T11:49:44.778Z,80.24
2022-11-28T11:52:13.628Z,80.71
2022-11-28T11:54:57.348Z,79.92
2022-11-28T11:57:36.054Z,79.25
2022-11-28T12:00:12.091Z,79.45
2022-11-28T12:02:56.947Z,79.99
2022-11-28T12:05:52.400Z,79.54
2022-11-28T12:08:50.388Z,87.61
2022-11-28T12:11:28.024Z,92.43
2022-11-28T12:14:13.598Z,90.99
2022-11-28T12:17:19.437Z,82.90
2022-11-28T12:20:32.169Z,82.97
2022-11-28T12:23:22.138Z,83.74
2022-11-28T12:26:08.827Z,82.84
2022-11-28T12:29:15.076Z,86.14
2022-11-28T12:32:08.982Z,84.21
2022-11-28T12:35:14.404Z,86.39
2022-11-28T12:38:18.124Z,83.24
2022-11-28T12:41:31.945Z,82.41
2022-11-28T12:44:52.678Z,79.75
2022-11-28T12:47:51.476Z,80.82
2022-11-28T12:51:01.166Z,83.83
2022-11-28T12:54:08.456Z,82.92
2022-11-28T12:56:43.027Z,84.95
2022-11-28T12:59:45.646Z,85.60
2022-11-28T13:02:27.122Z,86.05
2022-11-28T13:05:29.825Z,87.29
2022-11-28T13:08:25.929Z,86.93
2022-11-28T13:11:24.615Z,84.14
2022-11-28T13:14:16.235Z,82.53
2022-11-28T13:17:00.407Z,85.87
2022-11-28T13:20:04.067Z,81.38
2022-11-28T13:23:05.962Z,85.39
2022-11-28T13:25:48.376Z,80.72
2022-11-28T13:28:28.515Z,78.77
2022-11-28T13:31:12.670Z,78.98
2022-11-28T13:33:57.916Z,79.59
2022-11-28T13:40:26.982Z,80.60
2022-11-28T13:43:23.426Z,81.34
2022-11-28T13:45:53.036Z,82.01
2022-11-28T13:51:32.341Z,82.57
2022-11-28T13:54:20.047Z,82.38
2022-11-28T13:57:06.797Z,82.57
2022-11-28T13:59:36.930Z,82.59
2022-11-28T14:02:36.209Z,83.15
2022-11-28T14:05:15.619Z,81.99
2022-11-28T14:07:48.181Z,81.68
2022-11-28T14:10:28.954Z,81.65
2022-11-28T14:13:30.519Z,82.12
2022-11-28T14:17:09.741Z,82.28
2022-11-28T14:20:05.841Z,82.62
2022-11-28T14:23:08.660Z,81.93
2022-11-28T14:25:43.470Z,82.06
2022-11-28T14:29:49.113Z,81.70
2022-11-28T14:32:42.027Z,82.49
2022-11-28T14:35:54.439Z,82.93
2022-11-28T14:38:32.484Z,83.16
2022-11-28T14:41:14.630Z,82.27
2022-11-28T14:43:48.255Z,81.91
2022-11-28T14:46:27.318Z,82.04
2022-11-28T14:48:59.930Z,81.91
2022-11-28T14:52:09.895Z,81.53
2022-11-28T14:54:44.269Z,82.59
2022-11-28T14:57:19.770Z,81.78
2022-11-28T14:59:50.380Z,81.73
2022-11-28T15:02:49.123Z,81.76
2022-11-28T15:05:44.338Z,81.92
2022-11-28T15:08:38.419Z,82.87
2022-11-28T15:11:13.303Z,82.48
2022-11-28T15:14:09.284Z,82.61
2022-11-28T15:16:50.105Z,82.45
2022-11-28T15:19:45.425Z,82.43
2022-11-28T15:22:38.801Z,82.45
2022-11-28T15:25:27.105Z,82.43
2022-11-28T15:27:57.205Z,82.75
2022-11-28T15:30:27.153Z,82.76
2022-11-28T15:33:00.649Z,83.77
2022-11-28T15:35:29.507Z,83.82
2022-11-28T15:37:59.016Z,84.45
2022-11-28T15:40:36.427Z,83.91
2022-11-28T15:43:11.267Z,84.18
2022-11-28T15:45:44.672Z,84.20
2022-11-28T15:48:40.119Z,83.53
2022-11-28T15:51:33.134Z,83.55
2022-11-28T15:54:11.981Z,83.84
2022-11-28T15:56:57.874Z,83.57
2022-11-28T15:59:26.798Z,83.79
2022-11-28T16:02:02.261Z,83.99
2022-11-28T16:04:31.530Z,84.16
2022-11-28T16:07:02.317Z,84.14
2022-11-28T16:09:35.899Z,83.75
2022-11-28T16:12:13.800Z,83.79
2022-11-28T16:14:46.562Z,85.21
2022-11-28T16:17:23.509Z,85.02
2022-11-28T16:19:54.895Z,85.17
2022-11-28T16:22:32.804Z,85.37
2022-11-28T16:25:30.753Z,84.60
2022-11-28T16:28:00.082Z,84.67
2022-11-28T16:30:37.449Z,84.54
2022-11-28T16:33:52.459Z,85.32
2022-11-28T16:36:31.273Z,85.31
2022-11-28T16:39:16.486Z,86.28
2022-11-28T16:42:20.407Z,85.39
2022-11-28T16:44:49.074Z,84.91
2022-11-28T16:47:30.732Z,85.33
2022-11-28T16:50:23.756Z,85.17
2022-11-28T16:52:53.421Z,84.91
2022-11-28T16:55:34.284Z,84.95
2022-11-28T16:58:21.758Z,85.40
2022-11-28T17:01:03.425Z,85.64
2022-11-28T17:04:00.007Z,86.11
2022-11-28T17:06:37.176Z,85.95
2022-11-28T17:09:13.109Z,85.93
2022-11-28T17:11:50.670Z,86.28
2022-11-28T17:14:19.391Z,86.01
2022-11-28T17:16:48.144Z,85.77
2022-11-28T17:19:16.990Z,86.11
2022-11-28T17:21:54.258Z,86.31
2022-11-28T17:24:27.478Z,86.48
2022-11-28T17:26:56.330Z,86.37
2022-11-28T17:29:28.853Z,86.13
2022-11-28T17:31:59.113Z,86.42
2022-11-28T17:34:31.829Z,86.55
2022-11-28T17:37:02.430Z,86.40
2022-11-28T17:39:31.965Z,86.12
2022-11-28T17:42:01.097Z,86.48
2022-11-28T17:44:34.030Z,86.33
2022-11-28T17:47:03.532Z,86.59
2022-11-28T17:49:32.298Z,85.73
2022-11-28T17:52:00.968Z,85.43
2022-11-28T17:54:30.843Z,85.76
2022-11-28T17:56:59.518Z,85.32
2022-11-28T17:59:28.281Z,85.42
2022-11-28T18:01:57.027Z,85.14
2022-11-28T18:04:26.300Z,85.29
2022-11-28T18:06:55.230Z,84.94
2022-11-28T18:09:23.974Z,84.94
2022-11-28T18:11:53.163Z,84.90
2022-11-28T18:14:21.947Z,84.75
2022-11-28T18:16:50.680Z,84.82
2022-11-28T18:19:19.431Z,85.01
2022-11-28T18:21:49.984Z,85.70
2022-11-28T18:24:19.264Z,85.33
2022-11-28T18:26:47.997Z,85.01
2022-11-28T18:29:17.655Z,85.49
2022-11-28T18:31:46.486Z,85.44
2022-11-28T18:34:15.339Z,85.28
2022-11-28T18:36:44.366Z,85.02
2022-11-28T18:39:15.704Z,85.51
2022-11-28T18:41:46.050Z,86.77
2022-11-28T18:44:14.757Z,86.75
2022-11-28T18:46:43.491Z,86.67
2022-11-28T18:49:15.438Z,86.32
2022-11-28T18:51:44.084Z,86.11
2022-11-28T18:54:20.597Z,86.00
2022-11-28T18:56:50.430Z,85.80
2022-11-28T18:59:20.013Z,85.70
2022-11-28T19:01:49.405Z,85.46
2022-11-28T19:04:18.735Z,86.08
2022-11-28T19:06:51.887Z,86.00
2022-11-28T19:09:58.877Z,86.61
2022-11-28T19:12:28.147Z,86.56
2022-11-28T19:15:02.684Z,86.46
2022-11-28T19:17:31.859Z,86.74
2022-11-28T19:20:01.212Z,86.42
2022-11-28T19:22:31.121Z,85.86
2022-11-28T19:24:59.952Z,85.79
2022-11-28T19:27:29.129Z,85.74
2022-11-28T19:29:58.034Z,85.70
2022-11-28T19:32:36.606Z,87.08
2022-11-28T19:35:05.948Z,86.49
2022-11-28T19:37:34.733Z,86.26
2022-11-28T19:40:04.057Z,86.33
2022-11-28T19:42:33.410Z,86.53
2022-11-28T19:45:02.090Z,86.86
2022-11-28T19:47:31.502Z,86.62
2022-11-28T19:50:00.417Z,86.21
2022-11-28T19:52:29.123Z,86.22
2022-11-28T19:54:58.165Z,86.19
2022-11-28T19:57:26.917Z,86.46
2022-11-28T19:59:55.687Z,86.10
2022-11-28T20:02:24.398Z,86.35
2022-11-28T20:04:53.325Z,86.07
2022-11-28T20:07:22.156Z,85.94
2022-11-28T20:09:51.408Z,86.37
2022-11-28T20:12:20.522Z,86.41
2022-11-28T20:14:49.256Z,86.33
2022-11-28T20:17:17.925Z,86.76
2022-11-28T20:19:48.275Z,87.07
2022-11-28T20:22:17.656Z,86.86
2022-11-28T20:24:47.441Z,86.52
2022-11-28T20:27:16.273Z,86.41
2022-11-28T20:29:45.762Z,86.36
2022-11-28T20:32:14.944Z,86.59
2022-11-28T20:34:43.891Z,86.68
2022-11-28T20:37:12.729Z,86.41
2022-11-28T20:39:41.614Z,86.43
2022-11-28T20:42:11.146Z,86.68
2022-11-28T20:44:40.016Z,86.93
2022-11-28T20:47:11.227Z,86.81
2022-11-28T20:49:40.048Z,86.64
2022-11-28T20:52:08.810Z,86.48
2022-11-28T20:54:37.573Z,86.88
2022-11-28T20:57:20.755Z,87.66
2022-11-28T20:59:50.508Z,87.53
2022-11-28T21:02:19.152Z,87.17
2022-11-28T21:04:47.833Z,87.30
2022-11-28T21:07:16.686Z,87.24
2022-11-28T21:09:46.263Z,86.87
2022-11-28T21:12:20.690Z,86.79
2022-11-28T21:14:54.794Z,86.79
2022-11-28T21:17:23.451Z,86.63
2022-11-28T21:19:52.252Z,86.71
2022-11-28T21:22:21.144Z,87.30
2022-11-28T21:24:51.576Z,87.14
2022-11-28T21:27:20.464Z,86.98
2022-11-28T21:29:52.610Z,86.76
2022-11-28T21:32:21.300Z,87.00
2022-11-28T21:34:49.972Z,87.29
2022-11-28T21:37:18.613Z,87.13
2022-11-28T21:39:47.430Z,87.23
2022-11-28T21:42:20.554Z,87.01
2022-11-28T21:44:49.684Z,87.19
2022-11-28T21:47:18.299Z,87.17
2022-11-28T21:49:47.093Z,87.36
2022-11-28T21:52:16.891Z,87.16
2022-11-28T21:54:46.135Z,88.03
2022-11-28T21:57:15.245Z,89.01
2022-11-28T21:59:45.161Z,87.93
2022-11-28T22:02:15.581Z,87.79
2022-11-28T22:04:44.855Z,87.86
2022-11-28T22:07:14.220Z,88.53
2022-11-28T22:09:43.253Z,88.31
2022-11-28T22:12:12.602Z,88.50
2022-11-28T22:14:41.695Z,88.29
2022-11-28T22:17:10.582Z,88.11
2022-11-28T22:19:39.781Z,88.10
2022-11-28T22:22:08.781Z,88.23
2022-11-28T22:24:37.910Z,88.16
2022-11-28T22:27:07.069Z,88.31
2022-11-28T22:29:36.159Z,88.47
2022-11-28T22:32:05.906Z,88.63
2022-11-28T22:34:39.688Z,88.87
2022-11-28T22:37:09.811Z,88.83
2022-11-28T22:39:39.320Z,88.81
2022-11-28T22:42:08.613Z,88.99
2022-11-28T22:44:37.295Z,89.40
2022-11-28T22:47:06.485Z,88.55
2022-11-28T22:49:35.488Z,88.94
2022-11-28T22:52:05.405Z,89.12
2022-11-28T22:54:34.501Z,89.32
2022-11-28T22:57:04.820Z,88.59
2022-11-28T22:59:37.007Z,88.63
2022-11-28T23:02:05.893Z,88.84
2022-11-28T23:04:34.988Z,89.47
2022-11-28T23:07:04.887Z,90.62
2022-11-28T23:09:35.231Z,91.33
2022-11-28T23:12:04.400Z,91.13
2022-11-28T23:14:33.719Z,90.99
2022-11-28T23:17:02.933Z,90.84
2022-11-28T23:19:33.036Z,90.34
2022-11-28T23:22:01.744Z,90.66
2022-11-28T23:24:31.227Z,90.02
2022-11-28T23:27:00.631Z,90.05
2022-11-28T23:29:30.862Z,90.07
2022-11-28T23:31:59.570Z,90.41
2022-11-28T23:34:29.770Z,91.91
2022-11-28T23:37:00.513Z,93.34
2022-11-28T23:39:30.104Z,92.09
2022-11-28T23:42:05.858Z,91.42
2022-11-28T23:44:34.859Z,92.61
2022-11-28T23:47:03.641Z,91.42
2022-11-28T23:49:32.547Z,92.85
2022-11-28T23:52:01.540Z,93.83
2022-11-28T23:54:30.636Z,94.45
2022-11-28T23:56:59.522Z,95.11
2022-11-28T23:59:28.816Z,93.90
